Time,TemperatureF,DewpointF,PressureIn,WindDirection,WindDirectionDegrees,WindSpeedMPH,WindSpeedGustMPH,Humidity,HourlyPrecipIn,Conditions,Clouds,dailyrainin,SoftwareType,DateUTC
2015-03-30 00:14:00,24.6,16.0,30.09,WSW,245,0.0,0.0,70,0.00,,,0.00,weatherlink.com 1.10,2015-03-30 04:14:00,
2015-03-30 00:29:00,24.7,17.0,30.09,WSW,245,0.0,0.0,71,0.00,,,0.00,weatherlink.com 1.10,2015-03-30 04:29:00,
2015-03-30 00:44:00,25.0,17.0,30.08,WSW,245,0.0,1.0,72,0.00,,,0.00,weatherlink.com 1.10,2015-03-30 04:44:00,
2015-03-30 00:59:00,26.7,16.0,30.08,WSW,242,1.0,1.0,64,0.00,,,0.00,weatherlink.com 1.10,2015-03-30 04:59:00,
2015-03-30 01:14:00,27.8,18.0,30.08,SW,226,0.0,1.0,67,0.00,,,0.00,weatherlink.com 1.10,2015-03-30 05:14:00,
2015-03-30 01:29:00,27.1,17.0,30.08,WSW,247,0.0,0.0,67,0.00,,,0.00,weatherlink.com 1.10,2015-03-30 05:29:00,
2015-03-30 01:45:00,26.9,19.0,30.06,WSW,247,0.0,0.0,72,0.00,,,0.00,weatherlink.com 1.10,2015-03-30 05:45:00,
2015-03-30 02:00:00,26.6,18.0,30.06,WSW,247,0.0,0.0,70,0.00,,,0.00,weatherlink.com 1.10,2015-03-30 06:00:00,
2015-03-30 02:15:00,25.4,19.0,30.05,WSW,247,0.0,0.0,75,0.00,,,0.00,weatherlink.com 1.10,2015-03-30 06:15:00,
2015-03-30 02:30:00,24.8,19.0,30.04,WSW,247,0.0,0.0,78,0.00,,,0.00,weatherlink.com 1.10,2015-03-30 06:30:00,
2015-03-30 02:45:00,25.6,19.0,30.03,WSW,247,0.0,1.0,77,0.00,,,0.00,weatherlink.com 1.10,2015-03-30 06:45:00,
2015-03-30 03:00:00,28.0,21.0,30.02,SSW,202,0.0,2.0,75,0.00,,,0.00,weatherlink.com 1.10,2015-03-30 07:00:00,
2015-03-30 03:15:00,29.2,22.0,30.01,South,185,0.0,1.0,75,0.00,,,0.00,weatherlink.com 1.10,2015-03-30 07:15:00,
2015-03-30 03:30:00,29.5,23.0,30.00,WSW,240,1.0,2.0,76,0.00,,,0.00,weatherlink.com 1.10,2015-03-30 07:30:00,
2015-03-30 03:45:00,29.5,23.0,30.00,SW,234,0.0,1.0,77,0.00,,,0.00,weatherlink.com 1.10,2015-03-30 07:45:00,
2015-03-30 04:00:00,30.0,24.0,30.00,WSW,238,0.0,1.0,77,0.00,,,0.00,weatherlink.com 1.10,2015-03-30 08:00:00,
2015-03-30 04:15:00,30.3,24.0,29.99,SSW,206,0.0,2.0,77,0.00,,,0.00,weatherlink.com 1.10,2015-03-30 08:15:00,
2015-03-30 04:30:00,30.9,24.0,29.98,WSW,240,1.0,2.0,76,0.00,,,0.00,weatherlink.com 1.10,2015-03-30 08:30:00,
2015-03-30 04:45:00,31.3,24.0,29.97,South,187,0.0,2.0,74,0.00,,,0.00,weatherlink.com 1.10,2015-03-30 08:45:00,
2015-03-30 05:00:00,31.6,24.0,29.97,SW,228,0.0,2.0,73,0.00,,,0.00,weatherlink.com 1.10,2015-03-30 09:00:00,
2015-03-30 05:15:00,31.8,24.0,29.97,SW,221,0.0,1.0,72,0.00,,,0.00,weatherlink.com 1.10,2015-03-30 09:15:00,
2015-03-30 05:30:00,31.9,24.0,29.96,SSW,199,0.0,2.0,72,0.00,,,0.00,weatherlink.com 1.10,2015-03-30 09:30:00,
2015-03-30 05:45:00,32.0,24.0,29.95,SW,233,0.0,1.0,72,0.00,,,0.00,weatherlink.com 1.10,2015-03-30 09:45:00,
2015-03-30 06:00:00,32.3,24.0,29.96,SW,220,0.0,4.0,72,0.00,,,0.00,weatherlink.com 1.10,2015-03-30 10:00:00,
2015-03-30 06:15:00,32.4,24.0,29.95,SSW,199,0.0,2.0,72,0.00,,,0.00,weatherlink.com 1.10,2015-03-30 10:15:00,
2015-03-30 06:30:00,32.5,24.0,29.94,SW,229,3.0,5.0,72,0.00,,,0.00,weatherlink.com 1.10,2015-03-30 10:30:00,
2015-03-30 06:45:00,33.8,23.0,29.94,WSW,242,6.0,12.0,64,0.00,,,0.00,weatherlink.com 1.10,2015-03-30 10:45:00,